Terminal Aerodrome Forecast
Issued by NWS Chicago, IL

Home | Current Version | Previous Version | Text Only | Print | Product List | Glossary On
Versions: 1 2 3 4 5 6 7 8 9 10 11 12 13 14 15 16 17 18 19 20 21 22 23 24 25 26 27 28 29 30 31 32 33 34 35 36 37 38
000
FTUS43 KLOT 291100
TAFRFD
TAF
KRFD 291136Z 2912/3012 33011KT 6SM BR VCSH OVC017
     FM291300 32015G24KT 6SM BR VCSH OVC008
      TEMPO 2913/2915 5SM -RASN OVC006
     FM291700 33020G31KT P6SM OVC010
     FM292300 32017G24KT P6SM BKN020
     FM300700 32010G17KT P6SM SCT020=

USA.gov is the U.S. government's official web portal to all federal, state and local government web resources and services.